sensor_id;sensor_type;location;lat;lon;timestamp;pressure;altitude;pressure_sealevel;temperature;humidity
51313;BME280;37397;53.226;10.400;2023-12-14T00:01:43;100396.47;;;6.25;78.41
51313;BME280;37397;53.226;10.400;2023-12-14T00:04:12;100393.75;;;6.21;78.48
51313;BME280;37397;53.226;10.400;2023-12-14T00:06:39;100407.47;;;6.23;78.42
51313;BME280;37397;53.226;10.400;2023-12-14T00:09:06;100416.78;;;6.23;78.44
51313;BME280;37397;53.226;10.400;2023-12-14T00:11:38;100424.47;;;6.23;78.24
51313;BME280;37397;53.226;10.400;2023-12-14T00:14:05;100425.75;;;6.22;78.59
51313;BME280;37397;53.226;10.400;2023-12-14T00:16:32;100425.38;;;6.19;78.45
51313;BME280;37397;53.226;10.400;2023-12-14T00:18:59;100430.13;;;6.23;78.52
51313;BME280;37397;53.226;10.400;2023-12-14T00:21:26;100426.66;;;6.18;78.35
51313;BME280;37397;53.226;10.400;2023-12-14T00:23:52;100433.88;;;6.19;78.55
51313;BME280;37397;53.226;10.400;2023-12-14T00:26:19;100438.31;;;6.20;78.42
51313;BME280;37397;53.226;10.400;2023-12-14T00:28:46;100444.44;;;6.19;78.40
51313;BME280;37397;53.226;10.400;2023-12-14T00:31:13;100445.81;;;6.14;78.57
51313;BME280;37397;53.226;10.400;2023-12-14T00:33:39;100458.75;;;6.15;78.42
51313;BME280;37397;53.226;10.400;2023-12-14T00:36:07;100463.50;;;6.18;78.47
51313;BME280;37397;53.226;10.400;2023-12-14T00:38:33;100470.41;;;6.17;78.62
51313;BME280;37397;53.226;10.400;2023-12-14T00:41:00;100466.44;;;6.15;78.43
51313;BME280;37397;53.226;10.400;2023-12-14T00:43:26;100467.25;;;6.15;78.05
51313;BME280;37397;53.226;10.400;2023-12-14T00:45:53;100471.00;;;6.12;78.55
51313;BME280;37397;53.226;10.400;2023-12-14T00:48:19;100466.88;;;6.13;78.16
51313;BME280;37397;53.226;10.400;2023-12-14T00:50:46;100469.41;;;6.11;78.29
51313;BME280;37397;53.226;10.400;2023-12-14T00:53:13;100471.78;;;6.13;78.42
51313;BME280;37397;53.226;10.400;2023-12-14T00:55:39;100482.31;;;6.12;78.46
51313;BME280;37397;53.226;10.400;2023-12-14T00:58:06;100492.53;;;6.10;78.22
51313;BME280;37397;53.226;10.400;2023-12-14T01:00:32;100497.72;;;6.11;78.30
51313;BME280;37397;53.226;10.400;2023-12-14T01:02:59;100500.22;;;6.09;78.35
51313;BME280;37397;53.226;10.400;2023-12-14T01:05:26;100500.09;;;6.13;78.18
51313;BME280;37397;53.226;10.400;2023-12-14T01:07:52;100514.72;;;6.11;78.16
51313;BME280;37397;53.226;10.400;2023-12-14T01:10:19;100513.25;;;6.07;78.58
51313;BME280;37397;53.226;10.400;2023-12-14T01:12:45;100518.47;;;6.08;78.36
51313;BME280;37397;53.226;10.400;2023-12-14T01:15:12;100512.34;;;6.10;78.36
51313;BME280;37397;53.226;10.400;2023-12-14T01:17:38;100521.66;;;6.10;78.18
51313;BME280;37397;53.226;10.400;2023-12-14T01:20:06;100532.19;;;6.10;78.44
51313;BME280;37397;53.226;10.400;2023-12-14T01:22:34;100526.97;;;6.08;78.42
51313;BME280;37397;53.226;10.400;2023-12-14T01:25:01;100533.91;;;6.07;78.25
51313;BME280;37397;53.226;10.400;2023-12-14T01:27:27;100532.63;;;6.08;78.44
51313;BME280;37397;53.226;10.400;2023-12-14T01:29:54;100529.47;;;6.06;78.58
51313;BME280;37397;53.226;10.400;2023-12-14T01:32:20;100535.13;;;6.06;78.60
51313;BME280;37397;53.226;10.400;2023-12-14T01:34:47;100542.41;;;6.07;78.35
51313;BME280;37397;53.226;10.400;2023-12-14T01:37:13;100537.97;;;6.06;78.50
51313;BME280;37397;53.226;10.400;2023-12-14T01:39:40;100552.13;;;6.06;78.29
51313;BME280;37397;53.226;10.400;2023-12-14T01:42:06;100557.81;;;6.06;78.55
51313;BME280;37397;53.226;10.400;2023-12-14T01:44:33;100553.38;;;6.05;78.54
51313;BME280;37397;53.226;10.400;2023-12-14T01:47:00;100559.03;;;6.05;78.30
51313;BME280;37397;53.226;10.400;2023-12-14T01:49:26;100561.88;;;6.05;78.52
51313;BME280;37397;53.226;10.400;2023-12-14T01:51:53;100570.38;;;6.05;78.59
51313;BME280;37397;53.226;10.400;2023-12-14T01:54:19;100569.25;;;6.02;78.60
51313;BME280;37397;53.226;10.400;2023-12-14T01:56:46;100575.25;;;6.05;78.72
51313;BME280;37397;53.226;10.400;2023-12-14T01:59:13;100577.31;;;6.04;78.39
51313;BME280;37397;53.226;10.400;2023-12-14T02:01:43;100578.88;;;6.05;78.58
51313;BME280;37397;53.226;10.400;2023-12-14T02:04:12;100575.38;;;6.01;78.64
51313;BME280;37397;53.226;10.400;2023-12-14T02:06:39;100572.53;;;6.01;78.60
51313;BME280;37397;53.226;10.400;2023-12-14T02:09:06;100583.88;;;6.01;78.34
51313;BME280;37397;53.226;10.400;2023-12-14T02:11:32;100584.53;;;6.05;78.65
51313;BME280;37397;53.226;10.400;2023-12-14T02:14:03;100585.44;;;6.02;78.46
51313;BME280;37397;53.226;10.400;2023-12-14T02:16:30;100583.06;;;6.00;78.37
51313;BME280;37397;53.226;10.400;2023-12-14T02:18:58;100587.03;;;6.03;78.44
51313;BME280;37397;53.226;10.400;2023-12-14T02:21:25;100598.38;;;6.03;78.34
51313;BME280;37397;53.226;10.400;2023-12-14T02:23:51;100592.69;;;6.03;78.62
51313;BME280;37397;53.226;10.400;2023-12-14T02:26:18;100592.69;;;6.03;78.51
51313;BME280;37397;53.226;10.400;2023-12-14T02:28:45;100592.69;;;6.03;78.42
51313;BME280;37397;53.226;10.400;2023-12-14T02:31:12;100598.03;;;6.01;78.48
51313;BME280;37397;53.226;10.400;2023-12-14T02:33:38;100592.69;;;6.03;78.34
51313;BME280;37397;53.226;10.400;2023-12-14T02:36:05;100596.44;;;6.00;78.42
51313;BME280;37397;53.226;10.400;2023-12-14T02:38:31;100592.81;;;5.99;78.22
51313;BME280;37397;53.226;10.400;2023-12-14T02:40:58;100591.91;;;6.02;78.43
51313;BME280;37397;53.226;10.400;2023-12-14T02:43:25;100595.22;;;6.01;78.68
51313;BME280;37397;53.226;10.400;2023-12-14T02:45:51;100600.88;;;6.01;78.61
51313;BME280;37397;53.226;10.400;2023-12-14T02:48:18;100610.59;;;6.00;78.73
51313;BME280;37397;53.226;10.400;2023-12-14T02:50:45;100610.59;;;6.00;78.39
51313;BME280;37397;53.226;10.400;2023-12-14T02:53:11;100607.00;;;5.99;78.43
51313;BME280;37397;53.226;10.400;2023-12-14T02:55:38;100615.47;;;5.99;78.45
51313;BME280;37397;53.226;10.400;2023-12-14T02:58:05;100622.72;;;6.00;78.36
51313;BME280;37397;53.226;10.400;2023-12-14T03:00:32;100630.75;;;6.02;78.61
51313;BME280;37397;53.226;10.400;2023-12-14T03:02:58;100614.69;;;5.99;78.69
51313;BME280;37397;53.226;10.400;2023-12-14T03:05:25;100624.75;;;6.00;78.52
51313;BME280;37397;53.226;10.400;2023-12-14T03:07:52;100628.38;;;6.00;78.58
51313;BME280;37397;53.226;10.400;2023-12-14T03:10:19;100630.88;;;5.98;78.57
51313;BME280;37397;53.226;10.400;2023-12-14T03:12:45;100634.16;;;5.97;78.41
51313;BME280;37397;53.226;10.400;2023-12-14T03:15:12;100632.56;;;5.96;78.29
51313;BME280;37397;53.226;10.400;2023-12-14T03:17:38;100638.94;;;6.00;78.66
51313;BME280;37397;53.226;10.400;2023-12-14T03:20:06;100641.44;;;5.98;78.44
51313;BME280;37397;53.226;10.400;2023-12-14T03:22:32;100643.03;;;5.99;78.39
51313;BME280;37397;53.226;10.400;2023-12-14T03:25:00;100636.66;;;5.95;78.19
51313;BME280;37397;53.226;10.400;2023-12-14T03:27:26;100642.22;;;5.98;78.46
51313;BME280;37397;53.226;10.400;2023-12-14T03:29:53;100639.06;;;5.96;78.34
51313;BME280;37397;53.226;10.400;2023-12-14T03:32:19;100642.66;;;5.97;78.35
51313;BME280;37397;53.226;10.400;2023-12-14T03:34:46;100645.50;;;5.97;78.26
51313;BME280;37397;53.226;10.400;2023-12-14T03:37:12;100657.69;;;5.94;78.49
51313;BME280;37397;53.226;10.400;2023-12-14T03:39:39;100659.66;;;5.97;78.18
51313;BME280;37397;53.226;10.400;2023-12-14T03:42:05;100669.03;;;5.94;78.55
51313;BME280;37397;53.226;10.400;2023-12-14T03:44:32;100677.88;;;5.96;78.15
51313;BME280;37397;53.226;10.400;2023-12-14T03:46:58;100671.00;;;5.97;78.24
51313;BME280;37397;53.226;10.400;2023-12-14T03:49:26;100677.88;;;5.96;78.26
51313;BME280;37397;53.226;10.400;2023-12-14T03:51:53;100685.16;;;5.97;78.25
51313;BME280;37397;53.226;10.400;2023-12-14T03:54:19;100695.69;;;5.96;78.58
51313;BME280;37397;53.226;10.400;2023-12-14T03:56:46;100694.88;;;5.96;78.43
51313;BME280;37397;53.226;10.400;2023-12-14T03:59:12;100710.66;;;5.97;78.32
51313;BME280;37397;53.226;10.400;2023-12-14T04:01:39;100711.88;;;5.96;78.46
51313;BME280;37397;53.226;10.400;2023-12-14T04:04:06;100711.88;;;5.96;78.56
51313;BME280;37397;53.226;10.400;2023-12-14T04:06:33;100717.53;;;5.96;78.24
51313;BME280;37397;53.226;10.400;2023-12-14T04:09:00;100721.97;;;5.97;78.36
51313;BME280;37397;53.226;10.400;2023-12-14T04:11:26;100730.09;;;5.95;78.69
51313;BME280;37397;53.226;10.400;2023-12-14T04:13:53;100727.28;;;5.95;78.23
51313;BME280;37397;53.226;10.400;2023-12-14T04:16:21;100736.13;;;5.97;78.69
51313;BME280;37397;53.226;10.400;2023-12-14T04:18:51;100744.25;;;5.95;78.58
51313;BME280;37397;53.226;10.400;2023-12-14T04:21:18;100734.97;;;5.94;78.65
51313;BME280;37397;53.226;10.400;2023-12-14T04:23:45;100745.88;;;5.96;78.44
51313;BME280;37397;53.226;10.400;2023-12-14T04:26:12;100749.16;;;5.94;78.57
51313;BME280;37397;53.226;10.400;2023-12-14T04:28:40;100748.69;;;5.96;78.54
51313;BME280;37397;53.226;10.400;2023-12-14T04:31:07;100752.44;;;5.93;78.31
51313;BME280;37397;53.226;10.400;2023-12-14T04:33:33;100751.63;;;5.92;78.57
51313;BME280;37397;53.226;10.400;2023-12-14T04:36:00;100752.44;;;5.93;78.90
51313;BME280;37397;53.226;10.400;2023-12-14T04:38:27;100759.22;;;5.95;78.30
51313;BME280;37397;53.226;10.400;2023-12-14T04:40:53;100759.22;;;5.95;78.20
51313;BME280;37397;53.226;10.400;2023-12-14T04:43:20;100772.59;;;5.95;78.19
51313;BME280;37397;53.226;10.400;2023-12-14T04:45:46;100758.44;;;5.95;78.33
51313;BME280;37397;53.226;10.400;2023-12-14T04:48:13;100762.16;;;5.92;78.21
51313;BME280;37397;53.226;10.400;2023-12-14T04:50:39;100775.44;;;5.95;78.32
51313;BME280;37397;53.226;10.400;2023-12-14T04:53:06;100773.50;;;5.92;78.40
51313;BME280;37397;53.226;10.400;2023-12-14T04:55:33;100782.31;;;5.94;78.54
51313;BME280;37397;53.226;10.400;2023-12-14T04:57:59;100780.31;;;5.94;78.55
51313;BME280;37397;53.226;10.400;2023-12-14T05:00:26;100785.16;;;5.94;78.54
51313;BME280;37397;53.226;10.400;2023-12-14T05:02:52;100783.91;;;5.95;78.22
51313;BME280;37397;53.226;10.400;2023-12-14T05:05:19;100780.38;;;5.91;78.58
51313;BME280;37397;53.226;10.400;2023-12-14T05:07:45;100779.16;;;5.92;78.11
51313;BME280;37397;53.226;10.400;2023-12-14T05:10:12;100778.38;;;5.91;78.19
51313;BME280;37397;53.226;10.400;2023-12-14T05:12:39;100781.53;;;5.93;78.54
51313;BME280;37397;53.226;10.400;2023-12-14T05:15:06;100782.31;;;5.94;78.35
51313;BME280;37397;53.226;10.400;2023-12-14T05:17:33;100779.16;;;5.92;78.24
51313;BME280;37397;53.226;10.400;2023-12-14T05:20:05;100791.72;;;5.91;78.38
51313;BME280;37397;53.226;10.400;2023-12-14T05:22:34;100785.25;;;5.90;78.23
51313;BME280;37397;53.226;10.400;2023-12-14T05:25:01;100797.75;;;5.93;78.56
51313;BME280;37397;53.226;10.400;2023-12-14T05:27:28;100803.03;;;5.91;78.37
51313;BME280;37397;53.226;10.400;2023-12-14T05:29:54;100808.25;;;5.92;78.24
51313;BME280;37397;53.226;10.400;2023-12-14T05:32:21;100813.13;;;5.92;78.56
51313;BME280;37397;53.226;10.400;2023-12-14T05:34:48;100827.63;;;5.94;78.32
51313;BME280;37397;53.226;10.400;2023-12-14T05:37:15;100820.97;;;5.88;78.22
51313;BME280;37397;53.226;10.400;2023-12-14T05:39:42;100827.63;;;5.94;78.53
51313;BME280;37397;53.226;10.400;2023-12-14T05:42:09;100823.69;;;5.91;78.18
51313;BME280;37397;53.226;10.400;2023-12-14T05:44:36;100833.31;;;5.94;78.58
51313;BME280;37397;53.226;10.400;2023-12-14T05:47:03;100833.31;;;5.94;78.42
51313;BME280;37397;53.226;10.400;2023-12-14T05:49:29;100834.19;;;5.91;78.49
51313;BME280;37397;53.226;10.400;2023-12-14T05:51:58;100839.88;;;5.91;78.39
51313;BME280;37397;53.226;10.400;2023-12-14T05:54:25;100853.13;;;5.94;78.28
51313;BME280;37397;53.226;10.400;2023-12-14T05:56:51;100852.78;;;5.92;78.61
51313;BME280;37397;53.226;10.400;2023-12-14T05:59:18;100852.78;;;5.92;78.65
51313;BME280;37397;53.226;10.400;2023-12-14T06:01:45;100859.25;;;5.92;78.44
51313;BME280;37397;53.226;10.400;2023-12-14T06:04:12;100862.53;;;5.91;78.49
51313;BME280;37397;53.226;10.400;2023-12-14T06:06:38;100860.94;;;5.90;78.44
51313;BME280;37397;53.226;10.400;2023-12-14T06:09:05;100866.94;;;5.92;78.68
51313;BME280;37397;53.226;10.400;2023-12-14T06:11:35;100868.19;;;5.91;78.53
51313;BME280;37397;53.226;10.400;2023-12-14T06:14:03;100865.78;;;5.89;78.39
51313;BME280;37397;53.226;10.400;2023-12-14T06:16:29;100875.44;;;5.92;78.46
51313;BME280;37397;53.226;10.400;2023-12-14T06:18:56;100888.72;;;5.95;78.76
51313;BME280;37397;53.226;10.400;2023-12-14T06:21:22;100888.72;;;5.95;78.50
51313;BME280;37397;53.226;10.400;2023-12-14T06:23:52;100902.88;;;5.95;78.43
51313;BME280;37397;53.226;10.400;2023-12-14T06:26:19;100900.03;;;5.95;78.56
51313;BME280;37397;53.226;10.400;2023-12-14T06:28:45;100893.22;;;5.92;78.20
51313;BME280;37397;53.226;10.400;2023-12-14T06:31:13;100900.41;;;5.97;78.31
51313;BME280;37397;53.226;10.400;2023-12-14T06:33:40;100900.94;;;5.92;78.28
51313;BME280;37397;53.226;10.400;2023-12-14T06:36:08;100897.22;;;5.95;78.39
51313;BME280;37397;53.226;10.400;2023-12-14T06:38:38;100901.28;;;5.94;78.54
51313;BME280;37397;53.226;10.400;2023-12-14T06:41:05;100909.00;;;5.93;78.35
51313;BME280;37397;53.226;10.400;2023-12-14T06:43:32;100910.97;;;5.96;78.74
51313;BME280;37397;53.226;10.400;2023-12-14T06:45:58;100916.25;;;5.94;78.41
51313;BME280;37397;53.226;10.400;2023-12-14T06:48:25;100919.88;;;5.95;78.37
51313;BME280;37397;53.226;10.400;2023-12-14T06:50:51;100919.53;;;5.93;78.37
51313;BME280;37397;53.226;10.400;2023-12-14T06:53:21;100918.28;;;5.94;78.31
51313;BME280;37397;53.226;10.400;2023-12-14T06:55:47;100921.47;;;5.96;78.67
51313;BME280;37397;53.226;10.400;2023-12-14T06:58:14;100909.00;;;5.93;78.46
51313;BME280;37397;53.226;10.400;2023-12-14T07:00:40;100924.38;;;5.92;78.47
51313;BME280;37397;53.226;10.400;2023-12-14T07:03:07;100927.22;;;5.92;78.55
51313;BME280;37397;53.226;10.400;2023-12-14T07:05:34;100934.03;;;5.95;78.53
51313;BME280;37397;53.226;10.400;2023-12-14T07:08:01;100941.31;;;5.96;78.40
51313;BME280;37397;53.226;10.400;2023-12-14T07:10:27;100942.53;;;5.95;78.70
51313;BME280;37397;53.226;10.400;2023-12-14T07:12:54;100951.81;;;5.95;78.43
51313;BME280;37397;53.226;10.400;2023-12-14T07:15:20;100957.94;;;5.94;78.41
51313;BME280;37397;53.226;10.400;2023-12-14T07:17:47;100957.47;;;5.95;78.69
51313;BME280;37397;53.226;10.400;2023-12-14T07:20:14;100963.97;;;5.96;78.72
51313;BME280;37397;53.226;10.400;2023-12-14T07:22:41;100967.59;;;5.96;78.40
51313;BME280;37397;53.226;10.400;2023-12-14T07:25:08;100969.63;;;5.96;78.65
51313;BME280;37397;53.226;10.400;2023-12-14T07:27:35;100966.44;;;5.94;78.55
51313;BME280;37397;53.226;10.400;2023-12-14T07:30:01;100970.06;;;5.94;78.57
51313;BME280;37397;53.226;10.400;2023-12-14T07:32:28;100972.47;;;5.96;78.64
51313;BME280;37397;53.226;10.400;2023-12-14T07:34:54;100969.25;;;5.94;78.68
51313;BME280;37397;53.226;10.400;2023-12-14T07:37:21;100976.53;;;5.95;78.94
51313;BME280;37397;53.226;10.400;2023-12-14T07:39:48;100986.22;;;5.97;78.48
51313;BME280;37397;53.226;10.400;2023-12-14T07:42:14;100983.41;;;5.94;78.39
51313;BME280;37397;53.226;10.400;2023-12-14T07:44:46;100996.72;;;5.97;78.87
51313;BME280;37397;53.226;10.400;2023-12-14T07:47:13;101003.19;;;5.97;78.66
51313;BME280;37397;53.226;10.400;2023-12-14T07:49:40;101003.63;;;5.96;78.76
51313;BME280;37397;53.226;10.400;2023-12-14T07:52:07;101009.66;;;5.98;78.70
51313;BME280;37397;53.226;10.400;2023-12-14T07:54:34;101015.31;;;5.98;78.78
51313;BME280;37397;53.226;10.400;2023-12-14T07:57:01;101017.72;;;5.99;78.78
51313;BME280;37397;53.226;10.400;2023-12-14T07:59:28;101016.19;;;5.95;78.51
51313;BME280;37397;53.226;10.400;2023-12-14T08:01:56;101020.25;;;5.94;78.64
51313;BME280;37397;53.226;10.400;2023-12-14T08:04:23;101031.09;;;5.99;78.69
51313;BME280;37397;53.226;10.400;2023-12-14T08:06:50;101040.38;;;5.99;78.81
51313;BME280;37397;53.226;10.400;2023-12-14T08:09:16;101040.44;;;5.96;78.54
51313;BME280;37397;53.226;10.400;2023-12-14T08:11:43;101051.78;;;5.96;78.56
51313;BME280;37397;53.226;10.400;2023-12-14T08:14:09;101055.75;;;5.98;78.44
51313;BME280;37397;53.226;10.400;2023-12-14T08:16:36;101069.50;;;6.00;78.51
51313;BME280;37397;53.226;10.400;2023-12-14T08:19:03;101083.66;;;6.00;78.47
51313;BME280;37397;53.226;10.400;2023-12-14T08:21:29;101076.75;;;6.01;78.53
51313;BME280;37397;53.226;10.400;2023-12-14T08:23:56;101082.41;;;6.01;78.80
51313;BME280;37397;53.226;10.400;2023-12-14T08:26:22;101085.25;;;6.01;78.57
51313;BME280;37397;53.226;10.400;2023-12-14T08:28:49;101082.41;;;6.01;78.66
51313;BME280;37397;53.226;10.400;2023-12-14T08:31:16;101089.66;;;6.02;78.65
51313;BME280;37397;53.226;10.400;2023-12-14T08:33:43;101083.22;;;6.01;78.69
51313;BME280;37397;53.226;10.400;2023-12-14T08:36:16;101102.59;;;6.03;78.60
51313;BME280;37397;53.226;10.400;2023-12-14T08:38:43;101101.38;;;6.04;78.46
51313;BME280;37397;53.226;10.400;2023-12-14T08:41:16;101097.81;;;6.00;78.62
51313;BME280;37397;53.226;10.400;2023-12-14T08:43:43;101104.19;;;6.04;78.61
51313;BME280;37397;53.226;10.400;2023-12-14T08:46:10;101109.88;;;6.04;78.53
51313;BME280;37397;53.226;10.400;2023-12-14T08:48:37;101119.16;;;6.05;78.38
51313;BME280;37397;53.226;10.400;2023-12-14T08:51:04;101115.53;;;6.04;78.34
51313;BME280;37397;53.226;10.400;2023-12-14T08:53:31;101122.00;;;6.05;78.49
51313;BME280;37397;53.226;10.400;2023-12-14T08:55:57;101117.19;;;6.01;78.59
51313;BME280;37397;53.226;10.400;2023-12-14T08:58:24;101126.88;;;6.04;78.62
51313;BME280;37397;53.226;10.400;2023-12-14T09:00:51;101128.44;;;6.05;78.56
51313;BME280;37397;53.226;10.400;2023-12-14T09:03:19;101126.06;;;6.03;78.57
51313;BME280;37397;53.226;10.400;2023-12-14T09:05:46;101129.69;;;6.04;78.69
51313;BME280;37397;53.226;10.400;2023-12-14T09:08:13;101131.28;;;6.05;78.61
51313;BME280;37397;53.226;10.400;2023-12-14T09:10:39;101132.53;;;6.04;78.50
51313;BME280;37397;53.226;10.400;2023-12-14T09:13:06;101132.53;;;6.04;78.61
51313;BME280;37397;53.226;10.400;2023-12-14T09:15:33;101136.94;;;6.05;78.58
51313;BME280;37397;53.226;10.400;2023-12-14T09:18:00;101139.06;;;6.01;78.49
51313;BME280;37397;53.226;10.400;2023-12-14T09:20:27;101139.78;;;6.05;78.64
51313;BME280;37397;53.226;10.400;2023-12-14T09:22:54;101145.44;;;6.05;78.40
51313;BME280;37397;53.226;10.400;2023-12-14T09:25:20;101146.25;;;6.06;78.67
51313;BME280;37397;53.226;10.400;2023-12-14T09:27:47;101144.75;;;6.01;78.37
51313;BME280;37397;53.226;10.400;2023-12-14T09:30:14;101158.38;;;6.06;78.64
51313;BME280;37397;53.226;10.400;2023-12-14T09:32:42;101161.22;;;6.06;78.77
51313;BME280;37397;53.226;10.400;2023-12-14T09:35:09;101163.69;;;6.04;78.60
51313;BME280;37397;53.226;10.400;2023-12-14T09:37:36;101163.31;;;6.02;78.83
51313;BME280;37397;53.226;10.400;2023-12-14T09:40:03;101172.09;;;6.08;78.69
51313;BME280;37397;53.226;10.400;2023-12-14T09:42:38;101168.09;;;6.05;78.39
51313;BME280;37397;53.226;10.400;2023-12-14T09:45:07;101181.38;;;6.08;78.59
51313;BME280;37397;53.226;10.400;2023-12-14T09:47:36;101181.03;;;6.06;78.68
51313;BME280;37397;53.226;10.400;2023-12-14T09:50:04;101183.16;;;6.02;78.57
51313;BME280;37397;53.226;10.400;2023-12-14T09:52:31;101194.78;;;6.08;78.57
51313;BME280;37397;53.226;10.400;2023-12-14T09:54:59;101206.88;;;6.08;78.56
51313;BME280;37397;53.226;10.400;2023-12-14T09:57:26;101206.88;;;6.08;78.52
51313;BME280;37397;53.226;10.400;2023-12-14T09:59:54;101211.69;;;6.11;78.50
51313;BME280;37397;53.226;10.400;2023-12-14T10:02:25;101214.50;;;6.11;78.39
51313;BME280;37397;53.226;10.400;2023-12-14T10:04:52;101218.16;;;6.12;78.49
51313;BME280;37397;53.226;10.400;2023-12-14T10:07:21;101214.50;;;6.11;78.52
51313;BME280;37397;53.226;10.400;2023-12-14T10:09:48;101218.16;;;6.12;78.72
51313;BME280;37397;53.226;10.400;2023-12-14T10:12:14;101202.03;;;6.09;78.59
51313;BME280;37397;53.226;10.400;2023-12-14T10:14:41;101207.63;;;6.12;78.44
51313;BME280;37397;53.226;10.400;2023-12-14T10:19:43;101215.78;;;6.10;78.74
51313;BME280;37397;53.226;10.400;2023-12-14T10:22:11;101220.19;;;6.11;78.38
51313;BME280;37397;53.226;10.400;2023-12-14T10:24:39;101219.75;;;6.13;78.53
51313;BME280;37397;53.226;10.400;2023-12-14T10:27:06;101235.06;;;6.15;78.91
51313;BME280;37397;53.226;10.400;2023-12-14T10:29:34;101237.53;;;6.13;78.73
51313;BME280;37397;53.226;10.400;2023-12-14T10:32:03;101242.31;;;6.16;78.84
51313;BME280;37397;53.226;10.400;2023-12-14T10:34:34;101241.53;;;6.16;78.47
51313;BME280;37397;53.226;10.400;2023-12-14T10:37:04;101242.31;;;6.16;78.65
51313;BME280;37397;53.226;10.400;2023-12-14T10:39:34;101235.94;;;6.12;78.64
51313;BME280;37397;53.226;10.400;2023-12-14T10:42:02;101241.63;;;6.12;78.74
51313;BME280;37397;53.226;10.400;2023-12-14T10:44:48;101262.97;;;6.17;78.55
51313;BME280;37397;53.226;10.400;2023-12-14T10:47:38;101260.19;;;6.13;78.79
51313;BME280;37397;53.226;10.400;2023-12-14T10:50:06;101263.75;;;6.17;78.85
51313;BME280;37397;53.226;10.400;2023-12-14T10:52:33;101255.25;;;6.17;78.82
51313;BME280;37397;53.226;10.400;2023-12-14T10:55:12;101259.69;;;6.18;78.29
51313;BME280;37397;53.226;10.400;2023-12-14T10:57:41;101275.44;;;6.19;78.47
51313;BME280;37397;53.226;10.400;2023-12-14T11:00:10;101275.44;;;6.19;78.76
51313;BME280;37397;53.226;10.400;2023-12-14T11:02:41;101277.06;;;6.20;78.34
51313;BME280;37397;53.226;10.400;2023-12-14T11:05:13;101276.69;;;6.18;78.65
51313;BME280;37397;53.226;10.400;2023-12-14T11:07:49;101282.28;;;6.22;78.68
51313;BME280;37397;53.226;10.400;2023-12-14T11:10:21;101284.69;;;6.24;78.76
51313;BME280;37397;53.226;10.400;2023-12-14T11:13:03;101284.31;;;6.22;78.60
51313;BME280;37397;53.226;10.400;2023-12-14T11:15:30;101292.38;;;6.23;78.78
51313;BME280;37397;53.226;10.400;2023-12-14T11:23:13;101304.50;;;6.24;78.43
51313;BME280;37397;53.226;10.400;2023-12-14T11:25:40;101311.31;;;6.26;78.50
51313;BME280;37397;53.226;10.400;2023-12-14T11:28:12;101322.22;;;6.28;78.61
51313;BME280;37397;53.226;10.400;2023-12-14T11:30:40;101326.31;;;6.27;78.30
51313;BME280;37397;53.226;10.400;2023-12-14T11:33:20;101328.72;;;6.28;78.16
51313;BME280;37397;53.226;10.400;2023-12-14T11:35:47;101327.09;;;6.27;78.53
51313;BME280;37397;53.226;10.400;2023-12-14T11:38:14;101327.44;;;6.29;78.38
51313;BME280;37397;53.226;10.400;2023-12-14T11:40:41;101329.50;;;6.29;78.27
51313;BME280;37397;53.226;10.400;2023-12-14T11:43:08;101319.81;;;6.26;78.37
51313;BME280;37397;53.226;10.400;2023-12-14T11:45:37;101330.28;;;6.29;78.22
51313;BME280;37397;53.226;10.400;2023-12-14T11:48:08;101331.09;;;6.30;78.23
51313;BME280;37397;53.226;10.400;2023-12-14T11:50:41;101332.34;;;6.29;78.47
51313;BME280;37397;53.226;10.400;2023-12-14T11:53:10;101331.09;;;6.30;78.19
51313;BME280;37397;53.226;10.400;2023-12-14T11:55:40;101342.34;;;6.33;78.32
51313;BME280;37397;53.226;10.400;2023-12-14T11:58:07;101341.56;;;6.33;78.29
51313;BME280;37397;53.226;10.400;2023-12-14T12:00:34;101342.34;;;6.33;78.23
51313;BME280;37397;53.226;10.400;2023-12-14T12:03:14;101342.78;;;6.32;78.08
51313;BME280;37397;53.226;10.400;2023-12-14T12:05:47;101344.03;;;6.31;77.92
51313;BME280;37397;53.226;10.400;2023-12-14T12:08:16;101343.22;;;6.30;78.35
51313;BME280;37397;53.226;10.400;2023-12-14T12:10:46;101360.16;;;6.34;78.31
51313;BME280;37397;53.226;10.400;2023-12-14T12:13:15;101347.59;;;6.35;78.32
51313;BME280;37397;53.226;10.400;2023-12-14T12:15:42;101355.34;;;6.31;78.23
51313;BME280;37397;53.226;10.400;2023-12-14T12:18:11;101348.81;;;6.34;77.99
51313;BME280;37397;53.226;10.400;2023-12-14T12:20:38;101355.31;;;6.34;77.96
51313;BME280;37397;53.226;10.400;2023-12-14T12:23:06;101356.88;;;6.35;78.03
51313;BME280;37397;53.226;10.400;2023-12-14T12:25:33;101361.75;;;6.35;78.14
51313;BME280;37397;53.226;10.400;2023-12-14T12:28:02;101361.75;;;6.35;78.11
51313;BME280;37397;53.226;10.400;2023-12-14T12:30:30;101356.53;;;6.33;77.84
51313;BME280;37397;53.226;10.400;2023-12-14T12:32:58;101361.75;;;6.35;78.08
51313;BME280;37397;53.226;10.400;2023-12-14T12:35:25;101359.78;;;6.32;77.77
51313;BME280;37397;53.226;10.400;2023-12-14T12:37:52;101357.75;;;6.32;77.78
51313;BME280;37397;53.226;10.400;2023-12-14T12:40:23;101367.78;;;6.37;77.88
51313;BME280;37397;53.226;10.400;2023-12-14T12:42:52;101373.44;;;6.37;77.80
51313;BME280;37397;53.226;10.400;2023-12-14T12:45:19;101380.38;;;6.36;77.68
51313;BME280;37397;53.226;10.400;2023-12-14T12:47:49;101372.66;;;6.36;77.83
51313;BME280;37397;53.226;10.400;2023-12-14T12:50:16;101377.16;;;6.34;77.58
51313;BME280;37397;53.226;10.400;2023-12-14T12:52:43;101391.25;;;6.37;77.75
51313;BME280;37397;53.226;10.400;2023-12-14T12:55:11;101391.72;;;6.36;77.89
51313;BME280;37397;53.226;10.400;2023-12-14T12:57:38;101397.00;;;6.34;77.83
51313;BME280;37397;53.226;10.400;2023-12-14T13:00:05;101394.16;;;6.34;77.68